Time;durP1;ratioP1;P1;durP2;ratioP2;P2;SDS_P1;SDS_P2;PMS_P1;PMS_P2;Temp;Humidity;BMP_temperature;BMP_pressure;BME280_temperature;BME280_humidity;BME280_pressure;Samples;Min_cycle;Max_cycle;Signal;HPM_P1;HPM_P2
2021/04/06 00:00:23;;;;;;;20.17;2.70;;;;;;;;;;5013765;28;20030;-60
2021/04/06 00:02:53;;;;;;;19.30;3.58;;;;;;;;;;5012821;28;20030;-60
2021/04/06 00:05:20;;;;;;;17.23;2.47;;;;;;;;;;5011865;28;20037;-60
2021/04/06 00:07:45;;;;;;;;;;;;;;;;;;5012926;28;20197;-61
2021/04/06 00:10:13;;;;;;;13.83;3.00;;;;;;;;;;5013208;28;20000;-60
2021/04/06 00:12:39;;;;;;;16.30;2.78;;;;;;;;;;5007285;28;20026;-59
2021/04/06 00:15:07;;;;;;;15.38;2.10;;;;;;;;;;5002697;28;20076;-60
2021/04/06 00:17:34;;;;;;;17.98;3.88;;;;;;;;;;5013339;28;20038;-60
2021/04/06 00:19:59;;;;;;;;;;;;;;;;;;5012462;28;20028;-59
2021/04/06 00:22:26;;;;;;;22.23;3.27;;;;;;;;;;5012654;28;20327;-60
2021/04/06 00:24:52;;;;;;;20.38;4.18;;;;;;;;;;5013630;28;20054;-60
2021/04/06 00:27:29;;;;;;;19.42;3.22;;;;;;;;;;5002095;28;20050;-60
2021/04/06 00:29:55;;;;;;;;;;;;;;;;;;4994430;28;20114;-60
2021/04/06 00:32:21;;;;;;;16.97;2.30;;;;;;;;;;4992066;28;19953;-60
2021/04/06 00:34:50;;;;;;;21.42;2.70;;;;;;;;;;4993602;28;20316;-60
2021/04/06 00:37:16;;;;;;;24.83;4.28;;;;;;;;;;4993047;28;20038;-60
2021/04/06 00:39:42;;;;;;;15.75;4.18;;;;;;;;;;4993635;28;20346;-59
2021/04/06 00:42:09;;;;;;;28.02;5.43;;;;;;;;;;4992997;28;20037;-58
2021/04/06 00:44:34;;;;;;;;;;;;;;;;;;4994073;28;20034;-60
2021/04/06 00:47:00;;;;;;;13.00;2.93;;;;;;;;;;4993323;28;19929;-61
2021/04/06 00:49:26;;;;;;;22.23;3.77;;;;;;;;;;4991594;28;20030;-60
2021/04/06 00:51:52;;;;;;;18.73;3.83;;;;;;;;;;4993694;28;20772;-61
2021/04/06 00:54:18;;;;;;;15.17;2.43;;;;;;;;;;4992257;28;20109;-60
2021/04/06 00:56:44;;;;;;;18.47;3.73;;;;;;;;;;4993400;28;20050;-60
2021/04/06 00:59:13;;;;;;;14.68;2.40;;;;;;;;;;4993261;28;20104;-60
2021/04/06 01:01:46;;;;;;;14.73;2.78;;;;;;;;;;4993466;28;20050;-62
2021/04/06 01:04:12;;;;;;;24.60;3.67;;;;;;;;;;4992742;28;20027;-61
2021/04/06 01:07:01;;;;;;;34.00;3.67;;;;;;;;;;4991781;28;20041;-59
2021/04/06 01:09:34;;;;;;;19.67;3.50;;;;;;;;;;4981644;28;20097;-59
2021/04/06 01:12:04;;;;;;;26.55;3.65;;;;;;;;;;4993167;28;20026;-60
2021/04/06 01:14:34;;;;;;;24.00;3.05;;;;;;;;;;5008187;28;20032;-59
2021/04/06 01:17:00;;;;;;;25.95;3.80;;;;;;;;;;5008010;28;20092;-60
2021/04/06 01:19:27;;;;;;;25.52;3.33;;;;;;;;;;5007438;28;20014;-60
2021/04/06 01:21:54;;;;;;;16.77;3.47;;;;;;;;;;4992773;28;20455;-60
2021/04/06 01:24:20;;;;;;;35.33;4.22;;;;;;;;;;4991563;28;20059;-61
2021/04/06 01:26:47;;;;;;;15.75;3.67;;;;;;;;;;4993040;28;20044;-60
2021/04/06 01:29:12;;;;;;;28.60;4.80;;;;;;;;;;4992026;28;20116;-59
2021/04/06 01:31:37;;;;;;;15.93;3.53;;;;;;;;;;4991548;28;20149;-59
2021/04/06 01:34:03;;;;;;;15.63;3.03;;;;;;;;;;4992732;28;20105;-59
2021/04/06 01:36:29;;;;;;;18.70;2.72;;;;;;;;;;4991971;28;20133;-58
2021/04/06 01:38:54;;;;;;;22.10;2.67;;;;;;;;;;4992624;28;20311;-60
2021/04/06 01:41:20;;;;;;;14.43;2.30;;;;;;;;;;4991879;28;20082;-63
2021/04/06 01:43:48;;;;;;;12.87;2.37;;;;;;;;;;5018990;28;20029;-60
2021/04/06 01:46:17;;;;;;;16.10;2.13;;;;;;;;;;5032453;28;20079;-60
2021/04/06 01:48:43;;;;;;;15.98;2.80;;;;;;;;;;5031680;28;20030;-59
2021/04/06 01:51:09;;;;;;;16.80;3.40;;;;;;;;;;5031606;28;20104;-58
2021/04/06 01:53:35;;;;;;;29.52;2.38;;;;;;;;;;5032017;28;20095;-59
2021/04/06 01:56:04;;;;;;;17.60;3.10;;;;;;;;;;5030928;28;20535;-59
2021/04/06 01:58:31;;;;;;;19.67;3.20;;;;;;;;;;5032113;28;20038;-59
2021/04/06 02:03:41;;;;;;;18.27;2.42;;;;;;;;;;5033146;28;20061;-60
2021/04/06 02:06:09;;;;;;;20.45;3.28;;;;;;;;;;5048630;28;20026;-60
2021/04/06 02:08:34;;;;;;;24.58;5.38;;;;;;;;;;5032403;28;20025;-60
2021/04/06 02:11:00;;;;;;;19.50;2.67;;;;;;;;;;5030917;28;20055;-59
2021/04/06 02:13:25;;;;;;;22.23;3.33;;;;;;;;;;5031337;28;20041;-59
2021/04/06 02:15:58;;;;;;;36.63;3.37;;;;;;;;;;5031087;28;20371;-60
2021/04/06 02:18:24;;;;;;;19.33;4.45;;;;;;;;;;5042119;28;20040;-59
2021/04/06 02:20:53;;;;;;;17.25;2.90;;;;;;;;;;5033761;28;20462;-60
2021/04/06 02:23:19;;;;;;;26.25;3.17;;;;;;;;;;5030237;28;20453;-59
2021/04/06 02:25:48;;;;;;;17.48;2.75;;;;;;;;;;5030150;28;20033;-60
2021/04/06 02:28:14;;;;;;;24.77;3.65;;;;;;;;;;5030506;28;20466;-59
2021/04/06 02:30:39;;;;;;;23.85;3.15;;;;;;;;;;5030993;28;20018;-60
2021/04/06 02:33:05;;;;;;;28.57;3.87;;;;;;;;;;5031447;28;20454;-60
2021/04/06 02:35:30;;;;;;;21.17;4.20;;;;;;;;;;5048991;28;20036;-60
2021/04/06 02:37:56;;;;;;;20.57;3.93;;;;;;;;;;5035121;28;20548;-60
2021/04/06 02:40:22;;;;;;;31.30;3.80;;;;;;;;;;5034639;28;20460;-60
2021/04/06 02:42:48;;;;;;;21.23;3.30;;;;;;;;;;5035044;28;20246;-60
2021/04/06 02:45:17;;;;;;;21.95;3.78;;;;;;;;;;5034895;28;20091;-57
2021/04/06 02:47:50;;;;;;;23.88;4.40;;;;;;;;;;5034864;28;20033;-60
2021/04/06 02:50:18;;;;;;;17.88;4.57;;;;;;;;;;5049638;28;20121;-59
2021/04/06 02:52:44;;;;;;;22.92;3.75;;;;;;;;;;5016943;28;20025;-60
2021/04/06 02:55:10;;;;;;;16.70;2.30;;;;;;;;;;5033696;28;20033;-60
2021/04/06 02:57:40;;;;;;;16.40;3.67;;;;;;;;;;5034513;28;20037;-60
2021/04/06 03:00:05;;;;;;;12.40;2.33;;;;;;;;;;5033630;28;20305;-60
2021/04/06 03:02:37;;;;;;;13.53;2.27;;;;;;;;;;5034307;28;20138;-59
2021/04/06 03:05:02;;;;;;;12.65;2.70;;;;;;;;;;5035014;28;20029;-60
2021/04/06 03:07:28;;;;;;;15.20;3.37;;;;;;;;;;5033856;28;20037;-60
2021/04/06 03:09:53;;;;;;;15.80;2.23;;;;;;;;;;5033435;28;20029;-59
2021/04/06 03:12:19;;;;;;;11.83;1.97;;;;;;;;;;5034162;28;20417;-58
2021/04/06 03:14:46;;;;;;;5.72;1.30;;;;;;;;;;5033250;28;20095;-60
2021/04/06 03:17:12;;;;;;;6.55;1.45;;;;;;;;;;5034363;28;20063;-59
2021/04/06 03:19:37;;;;;;;11.20;1.42;;;;;;;;;;5033914;28;20411;-59
2021/04/06 03:22:05;;;;;;;8.77;1.30;;;;;;;;;;5034287;28;20366;-59
2021/04/06 03:24:30;;;;;;;8.82;2.25;;;;;;;;;;5034165;28;20061;-59
2021/04/06 03:26:56;;;;;;;8.93;1.73;;;;;;;;;;5034301;28;20076;-60
2021/04/06 03:29:22;;;;;;;11.25;2.08;;;;;;;;;;5034064;28;20036;-59
2021/04/06 03:31:47;;;;;;;5.53;1.57;;;;;;;;;;5032993;28;20033;-60
2021/04/06 03:34:12;;;;;;;5.57;1.13;;;;;;;;;;5034332;28;20492;-59
2021/04/06 03:36:39;;;;;;;9.67;1.67;;;;;;;;;;5032393;28;20100;-60
2021/04/06 03:39:06;;;;;;;12.27;1.50;;;;;;;;;;5032775;28;20056;-59
2021/04/06 03:41:33;;;;;;;8.20;1.58;;;;;;;;;;5033572;28;20049;-60
2021/04/06 03:44:11;;;;;;;13.83;2.07;;;;;;;;;;5034306;28;20413;-59
2021/04/06 03:46:37;;;;;;;11.07;2.55;;;;;;;;;;5032537;28;20021;-59
2021/04/06 03:49:16;;;;;;;5.55;1.55;;;;;;;;;;5034022;28;20104;-61
2021/04/06 03:51:52;;;;;;;9.35;1.75;;;;;;;;;;5033202;28;20036;-59
2021/04/06 03:54:38;;;;;;;9.07;2.28;;;;;;;;;;5033575;28;20512;-60
2021/04/06 03:57:23;;;;;;;7.85;2.05;;;;;;;;;;5033259;28;20045;-60
2021/04/06 03:59:48;;;;;;;17.65;3.47;;;;;;;;;;5034489;28;20408;-60
2021/04/06 04:02:14;;;;;;;17.17;2.90;;;;;;;;;;5033985;28;20014;-60
2021/04/06 04:04:39;;;;;;;17.40;2.70;;;;;;;;;;5033272;28;20458;-60
2021/04/06 04:07:07;;;;;;;12.70;2.40;;;;;;;;;;5033786;28;20029;-60
2021/04/06 04:09:32;;;;;;;17.13;2.55;;;;;;;;;;5033228;28;20029;-60
2021/04/06 04:11:58;;;;;;;10.67;2.33;;;;;;;;;;5032375;28;20460;-61
2021/04/06 04:14:23;;;;;;;13.60;1.90;;;;;;;;;;5033108;28;20041;-56
2021/04/06 04:16:48;;;;;;;14.70;3.13;;;;;;;;;;5034077;28;20034;-60
2021/04/06 04:19:14;;;;;;;17.50;2.40;;;;;;;;;;5032081;28;20033;-60
2021/04/06 04:21:39;;;;;;;9.97;2.23;;;;;;;;;;5032869;28;20100;-60
2021/04/06 04:24:05;;;;;;;17.20;2.60;;;;;;;;;;5033153;28;20040;-60
2021/04/06 04:26:30;;;;;;;15.40;1.90;;;;;;;;;;5032711;28;20029;-60
2021/04/06 04:28:55;;;;;;;13.13;2.40;;;;;;;;;;5033292;28;20263;-59
2021/04/06 04:31:21;;;;;;;13.67;2.03;;;;;;;;;;5033058;28;20033;-60
2021/04/06 04:33:46;;;;;;;22.67;2.53;;;;;;;;;;5032708;28;20437;-60
2021/04/06 04:36:11;;;;;;;13.93;2.83;;;;;;;;;;5048438;28;20458;-60
2021/04/06 04:38:37;;;;;;;12.93;2.73;;;;;;;;;;5032493;28;20033;-59
2021/04/06 04:41:02;;;;;;;15.30;2.10;;;;;;;;;;5033032;28;20040;-60
2021/04/06 04:43:28;;;;;;;16.93;2.03;;;;;;;;;;5047478;28;20021;-58
2021/04/06 04:45:53;;;;;;;18.37;2.20;;;;;;;;;;5031367;28;20026;-60
2021/04/06 04:48:18;;;;;;;16.60;2.27;;;;;;;;;;5048372;28;20052;-59
2021/04/06 04:50:44;;;;;;;22.87;4.00;;;;;;;;;;5047452;28;20086;-59
2021/04/06 04:53:09;;;;;;;14.97;2.53;;;;;;;;;;5032907;28;20033;-59
2021/04/06 04:55:34;;;;;;;11.17;3.17;;;;;;;;;;5047350;28;20033;-59
2021/04/06 04:58:00;;;;;;;14.33;2.33;;;;;;;;;;5030562;28;20124;-59
2021/04/06 05:00:25;;;;;;;12.70;2.07;;;;;;;;;;5032670;28;20021;-60
2021/04/06 05:02:50;;;;;;;9.77;1.53;;;;;;;;;;5030854;28;20373;-59
2021/04/06 05:05:17;;;;;;;4.70;1.33;;;;;;;;;;5032371;28;20422;-60
2021/04/06 05:07:43;;;;;;;6.55;1.50;;;;;;;;;;5031949;28;20116;-60
2021/04/06 05:10:09;;;;;;;6.78;1.85;;;;;;;;;;5032083;28;20053;-60
2021/04/06 05:12:35;;;;;;;4.07;1.38;;;;;;;;;;5046660;28;20040;-58
2021/04/06 05:15:01;;;;;;;3.50;0.95;;;;;;;;;;5032269;28;20009;-59
2021/04/06 05:17:26;;;;;;;6.38;1.20;;;;;;;;;;5031926;28;20072;-60
2021/04/06 05:19:52;;;;;;;8.20;1.50;;;;;;;;;;5031732;28;20021;-59
2021/04/06 05:22:17;;;;;;;4.10;1.40;;;;;;;;;;5030740;28;20132;-60
2021/04/06 05:24:43;;;;;;;7.23;1.47;;;;;;;;;;5031555;28;20040;-59
2021/04/06 05:27:08;;;;;;;7.20;1.87;;;;;;;;;;5032146;28;20116;-59
2021/04/06 05:29:34;;;;;;;9.63;1.80;;;;;;;;;;5031344;28;20025;-59
2021/04/06 05:31:59;;;;;;;8.30;2.23;;;;;;;;;;5047231;28;20388;-60
2021/04/06 05:34:24;;;;;;;11.67;1.80;;;;;;;;;;5047176;28;20462;-59
2021/04/06 05:36:50;;;;;;;6.30;1.03;;;;;;;;;;5031408;28;20032;-59
2021/04/06 05:39:16;;;;;;;5.77;1.90;;;;;;;;;;5031941;28;20038;-60
2021/04/06 05:41:42;;;;;;;9.00;1.60;;;;;;;;;;5046468;28;20037;-60
2021/04/06 05:44:08;;;;;;;6.78;1.85;;;;;;;;;;5047087;28;20037;-59
2021/04/06 05:46:34;;;;;;;;;;;;;;;;;;5031705;28;20032;-57
2021/04/06 05:49:02;;;;;;;7.40;1.37;;;;;;;;;;5031678;28;19901;-59
2021/04/06 05:51:28;;;;;;;3.20;1.15;;;;;;;;;;5031596;28;20032;-59
2021/04/06 05:53:54;;;;;;;1.60;0.80;;;;;;;;;;5031106;28;20029;-60
2021/04/06 05:56:19;;;;;;;2.30;0.90;;;;;;;;;;5031553;28;20130;-61
2021/04/06 05:58:44;;;;;;;4.80;0.97;;;;;;;;;;5030954;28;20029;-60
2021/04/06 06:01:10;;;;;;;5.20;0.73;;;;;;;;;;5031235;28;20389;-60
2021/04/06 06:03:35;;;;;;;3.40;0.77;;;;;;;;;;5030651;28;20152;-60
2021/04/06 06:06:01;;;;;;;3.37;0.87;;;;;;;;;;5031351;28;20029;-60
2021/04/06 06:08:26;;;;;;;7.07;1.10;;;;;;;;;;5031430;28;20029;-60
2021/04/06 06:11:01;;;;;;;9.73;1.00;;;;;;;;;;5030298;28;20112;-59
2021/04/06 06:13:28;;;;;;;4.45;1.48;;;;;;;;;;5031233;28;20034;-60
2021/04/06 06:16:09;;;;;;;4.72;1.20;;;;;;;;;;5030890;28;20104;-59
2021/04/06 06:18:50;;;;;;;9.13;1.40;;;;;;;;;;5046527;28;20033;-60
2021/04/06 06:21:16;;;;;;;3.08;0.95;;;;;;;;;;5031331;28;20033;-59
2021/04/06 06:23:41;;;;;;;10.70;1.10;;;;;;;;;;5030804;28;20509;-59
2021/04/06 06:26:06;;;;;;;5.73;1.93;;;;;;;;;;5029945;28;20480;-59
2021/04/06 06:28:34;;;;;;;6.10;1.27;;;;;;;;;;5029947;28;20036;-60
2021/04/06 06:30:59;;;;;;;8.00;1.38;;;;;;;;;;5030619;28;20038;-59
2021/04/06 06:33:29;;;;;;;5.53;1.30;;;;;;;;;;5031066;28;20022;-60
2021/04/06 06:35:56;;;;;;;8.50;1.27;;;;;;;;;;5028707;28;20030;-60
2021/04/06 06:38:23;;;;;;;6.57;1.20;;;;;;;;;;5031132;28;20042;-60
2021/04/06 06:40:50;;;;;;;9.13;2.45;;;;;;;;;;5030482;28;20029;-59
2021/04/06 06:43:17;;;;;;;8.38;1.25;;;;;;;;;;5030875;28;20449;-59
2021/04/06 06:45:44;;;;;;;5.55;1.50;;;;;;;;;;5020617;28;20030;-60
2021/04/06 06:48:10;;;;;;;4.35;1.75;;;;;;;;;;5009031;28;20044;-59
2021/04/06 06:50:45;;;;;;;6.25;1.50;;;;;;;;;;5016833;28;20010;-59
2021/04/06 06:53:11;;;;;;;12.15;1.27;;;;;;;;;;5011277;28;20025;-59
2021/04/06 06:55:37;;;;;;;11.63;1.80;;;;;;;;;;5017216;28;20480;-59
2021/04/06 06:58:02;;;;;;;8.38;1.60;;;;;;;;;;5020465;28;20065;-59
2021/04/06 07:00:28;;;;;;;8.88;1.77;;;;;;;;;;5021934;28;20037;-59
2021/04/06 07:02:53;;;;;;;5.80;1.03;;;;;;;;;;5019066;28;20033;-59
2021/04/06 07:05:23;;;;;;;13.27;2.00;;;;;;;;;;5017143;28;20300;-59
2021/04/06 07:07:59;;;;;;;5.75;1.15;;;;;;;;;;5018801;28;20026;-59
2021/04/06 07:10:26;;;;;;;6.47;1.52;;;;;;;;;;5021907;28;20251;-58
2021/04/06 07:12:51;;;;;;;;;;;;;;;;;;5019816;28;20017;-59
2021/04/06 07:15:18;;;;;;;10.50;1.90;;;;;;;;;;5018353;28;19928;-59
2021/04/06 07:17:44;;;;;;;7.53;1.40;;;;;;;;;;5018077;28;20057;-58
2021/04/06 07:20:23;;;;;;;7.35;1.70;;;;;;;;;;5019976;28;20326;-58
2021/04/06 07:22:51;;;;;;;8.20;1.70;;;;;;;;;;5022553;28;20370;-60
2021/04/06 07:25:17;;;;;;;6.03;1.38;;;;;;;;;;5021840;28;20045;-57
2021/04/06 07:27:43;;;;;;;6.38;1.40;;;;;;;;;;5020888;28;20041;-59
2021/04/06 07:30:10;;;;;;;9.65;1.80;;;;;;;;;;5025215;28;20025;-58
2021/04/06 07:32:36;;;;;;;9.15;2.03;;;;;;;;;;5024812;28;20469;-59
2021/04/06 07:35:01;;;;;;;8.43;1.88;;;;;;;;;;5013783;28;20040;-59
2021/04/06 07:37:26;;;;;;;8.13;1.90;;;;;;;;;;5014580;28;20049;-59
2021/04/06 07:39:54;;;;;;;8.33;1.47;;;;;;;;;;5028568;28;20038;-58
2021/04/06 07:42:20;;;;;;;12.20;1.52;;;;;;;;;;5014201;28;20025;-60
2021/04/06 07:44:46;;;;;;;9.10;2.10;;;;;;;;;;5013671;28;20426;-58
2021/04/06 07:47:11;;;;;;;7.23;1.57;;;;;;;;;;5014185;28;20034;-59
2021/04/06 07:49:38;;;;;;;6.67;1.60;;;;;;;;;;5014043;28;20117;-58
2021/04/06 07:52:13;;;;;;;12.80;2.05;;;;;;;;;;5013386;28;20022;-58
2021/04/06 07:54:39;;;;;;;15.48;2.10;;;;;;;;;;5013996;28;20064;-59
2021/04/06 07:57:06;;;;;;;24.15;3.42;;;;;;;;;;5012919;28;20044;-59
2021/04/06 07:59:34;;;;;;;8.65;2.40;;;;;;;;;;5013812;28;20033;-59
2021/04/06 08:02:01;;;;;;;12.18;2.08;;;;;;;;;;5030016;28;20025;-58
2021/04/06 08:04:29;;;;;;;8.10;2.10;;;;;;;;;;5012617;28;20043;-59
2021/04/06 08:06:56;;;;;;;14.07;2.35;;;;;;;;;;4993764;28;20046;-59
2021/04/06 08:09:21;;;;;;;;;;;;;;;;;;5009816;28;20101;-59
2021/04/06 08:12:02;;;;;;;10.90;1.90;;;;;;;;;;5022474;28;19967;-59
2021/04/06 08:14:28;;;;;;;10.88;1.30;;;;;;;;;;5033713;28;20449;-59
2021/04/06 08:17:13;;;;;;;15.27;2.00;;;;;;;;;;5032661;28;20065;-59
2021/04/06 08:19:47;;;;;;;7.63;1.88;;;;;;;;;;5032925;28;20104;-59
2021/04/06 08:22:19;;;;;;;7.20;1.90;;;;;;;;;;5033497;28;20029;-60
2021/04/06 08:24:44;;;;;;;4.38;1.30;;;;;;;;;;5032182;28;20128;-59
2021/04/06 08:27:28;;;;;;;8.67;1.50;;;;;;;;;;5032838;28;20119;-62
2021/04/06 08:30:12;;;;;;;5.82;1.70;;;;;;;;;;5024217;28;20255;-61
2021/04/06 08:32:38;;;;;;;10.43;1.83;;;;;;;;;;5032980;28;20025;-59
2021/04/06 08:35:03;;;;;;;5.93;1.40;;;;;;;;;;5032312;28;20028;-59
2021/04/06 08:37:38;;;;;;;7.50;2.23;;;;;;;;;;5033490;28;20061;-59
2021/04/06 08:40:07;;;;;;;7.50;1.77;;;;;;;;;;5032688;28;20031;-59
2021/04/06 08:42:34;;;;;;;8.07;2.25;;;;;;;;;;5033082;28;20032;-61
2021/04/06 08:45:00;;;;;;;5.05;1.90;;;;;;;;;;5028884;28;20032;-57
2021/04/06 08:47:43;;;;;;;7.28;2.30;;;;;;;;;;5009427;28;20026;-59
2021/04/06 08:50:10;;;;;;;7.30;2.03;;;;;;;;;;5013609;28;20014;-60
2021/04/06 08:52:35;;;;;;;;;;;;;;;;;;5017744;28;20395;-59
2021/04/06 08:55:08;;;;;;;13.07;3.77;;;;;;;;;;5021488;28;19940;-59
2021/04/06 08:57:33;;;;;;;7.05;2.10;;;;;;;;;;5031967;28;20131;-60
2021/04/06 09:00:05;;;;;;;7.40;1.60;;;;;;;;;;5023122;28;20076;-58
2021/04/06 09:02:30;;;;;;;10.27;2.45;;;;;;;;;;5032282;28;20048;-58
2021/04/06 09:04:56;;;;;;;6.97;1.63;;;;;;;;;;5012927;28;20474;-58
2021/04/06 09:07:32;;;;;;;7.25;1.73;;;;;;;;;;5012456;28;20279;-59
2021/04/06 09:09:58;;;;;;;11.18;1.92;;;;;;;;;;5010771;28;20053;-58
2021/04/06 09:12:24;;;;;;;8.75;2.22;;;;;;;;;;5017106;28;20021;-59
2021/04/06 09:14:51;;;;;;;19.42;2.35;;;;;;;;;;5030707;28;20037;-57
2021/04/06 09:17:16;;;;;;;9.77;1.90;;;;;;;;;;5019609;28;20029;-58
2021/04/06 09:19:42;;;;;;;7.97;2.40;;;;;;;;;;5010601;28;20116;-59
2021/04/06 09:22:09;;;;;;;7.67;2.00;;;;;;;;;;5011753;28;20040;-59
2021/04/06 09:24:35;;;;;;;13.60;2.67;;;;;;;;;;5012402;28;20040;-59
2021/04/06 09:27:00;;;;;;;14.33;2.70;;;;;;;;;;5020989;28;20049;-59
2021/04/06 09:29:50;;;;;;;7.97;1.60;;;;;;;;;;5032195;28;20049;-61
2021/04/06 09:32:18;;;;;;;13.95;2.03;;;;;;;;;;5031820;28;20052;-59
2021/04/06 09:34:44;;;;;;;8.07;2.08;;;;;;;;;;5031453;28;20030;-59
2021/04/06 09:37:20;;;;;;;15.87;2.93;;;;;;;;;;5012336;28;20034;-59
2021/04/06 09:39:46;;;;;;;11.02;3.00;;;;;;;;;;5011974;28;20454;-59
2021/04/06 09:42:12;;;;;;;13.97;3.37;;;;;;;;;;5010925;28;20038;-58
2021/04/06 09:44:39;;;;;;;16.20;3.00;;;;;;;;;;5025912;28;20695;-58
2021/04/06 09:47:10;;;;;;;17.30;2.58;;;;;;;;;;5009472;28;20060;-58
2021/04/06 09:49:55;;;;;;;12.75;2.80;;;;;;;;;;5011392;28;20060;-57
2021/04/06 09:52:23;;;;;;;11.73;1.90;;;;;;;;;;5010877;28;20091;-59
2021/04/06 09:54:50;;;;;;;9.00;1.65;;;;;;;;;;5010033;28;20037;-58
2021/04/06 09:57:16;;;;;;;5.00;1.50;;;;;;;;;;5008783;28;20045;-59
2021/04/06 09:59:50;;;;;;;9.30;2.08;;;;;;;;;;5011327;28;20034;-60
2021/04/06 10:02:17;;;;;;;6.18;1.70;;;;;;;;;;5011297;28;20026;-60
2021/04/06 10:04:46;;;;;;;9.63;1.75;;;;;;;;;;5011101;28;20059;-60
2021/04/06 10:07:11;;;;;;;6.20;1.83;;;;;;;;;;5001226;28;20026;-60
2021/04/06 10:09:44;;;;;;;8.80;2.63;;;;;;;;;;5010852;28;20477;-60
2021/04/06 10:12:10;;;;;;;12.02;2.80;;;;;;;;;;5010015;28;20033;-60
2021/04/06 10:14:36;;;;;;;6.63;1.73;;;;;;;;;;5011046;28;20101;-60
2021/04/06 10:17:03;;;;;;;8.40;2.42;;;;;;;;;;5010504;28;20033;-59
2021/04/06 10:19:29;;;;;;;12.63;2.17;;;;;;;;;;5011651;28;20044;-59
2021/04/06 10:22:01;;;;;;;7.78;2.08;;;;;;;;;;5011895;28;20034;-59
2021/04/06 10:24:27;;;;;;;12.27;2.20;;;;;;;;;;5011698;28;20022;-60
2021/04/06 10:27:04;;;;;;;6.18;1.30;;;;;;;;;;5011840;28;20080;-60
2021/04/06 10:29:32;;;;;;;7.57;1.45;;;;;;;;;;5011667;28;20030;-59
2021/04/06 10:32:00;;;;;;;7.15;1.00;;;;;;;;;;5009583;28;20084;-58
2021/04/06 10:34:26;;;;;;;3.35;1.02;;;;;;;;;;5011571;28;20080;-59
2021/04/06 10:36:55;;;;;;;5.63;1.20;;;;;;;;;;5011602;28;20484;-60
2021/04/06 10:39:31;;;;;;;2.22;0.70;;;;;;;;;;5011107;28;20034;-59
2021/04/06 10:41:57;;;;;;;6.28;2.28;;;;;;;;;;5011725;28;20031;-59
2021/04/06 10:44:22;;;;;;;1.92;1.05;;;;;;;;;;5009733;28;20030;-59
2021/04/06 10:46:48;;;;;;;1.47;0.80;;;;;;;;;;5011729;28;20033;-59
2021/04/06 10:49:13;;;;;;;6.17;1.10;;;;;;;;;;5011018;28;20021;-58
2021/04/06 10:51:46;;;;;;;6.50;1.07;;;;;;;;;;5011495;28;20029;-59
2021/04/06 10:54:12;;;;;;;6.73;1.50;;;;;;;;;;5009265;28;20145;-59
2021/04/06 10:56:38;;;;;;;;;;;;;;;;;;5012723;28;20283;-60
2021/04/06 10:59:07;;;;;;;6.03;1.13;;;;;;;;;;5014931;28;19916;-59
2021/04/06 11:01:38;;;;;;;4.60;1.10;;;;;;;;;;5015301;28;20030;-59
2021/04/06 11:04:12;;;;;;;4.27;1.10;;;;;;;;;;5029397;28;20700;-59
2021/04/06 11:06:38;;;;;;;6.53;1.20;;;;;;;;;;5015027;28;20712;-61
2021/04/06 11:09:17;;;;;;;3.15;0.90;;;;;;;;;;5014549;28;20248;-59
2021/04/06 11:11:43;;;;;;;4.80;1.10;;;;;;;;;;5013541;28;20462;-60
2021/04/06 11:14:10;;;;;;;2.42;1.23;;;;;;;;;;5014855;28;20254;-59
2021/04/06 11:16:36;;;;;;;4.07;0.90;;;;;;;;;;5013559;28;20477;-60
2021/04/06 11:19:01;;;;;;;2.15;1.10;;;;;;;;;;5013464;28;20046;-60
2021/04/06 11:21:27;;;;;;;4.70;0.80;;;;;;;;;;5014732;28;20037;-61
2021/04/06 11:23:53;;;;;;;2.47;0.80;;;;;;;;;;5013575;28;20369;-60
2021/04/06 11:26:18;;;;;;;2.42;0.77;;;;;;;;;;5014383;28;20075;-60
2021/04/06 11:28:44;;;;;;;1.43;0.50;;;;;;;;;;5014997;28;20515;-60
2021/04/06 11:31:10;;;;;;;2.05;0.65;;;;;;;;;;5014329;28;20255;-59
2021/04/06 11:33:35;;;;;;;1.92;0.80;;;;;;;;;;5014852;28;20476;-60
2021/04/06 11:36:01;;;;;;;2.03;1.08;;;;;;;;;;5014816;28;20009;-60
2021/04/06 11:38:26;;;;;;;3.15;0.80;;;;;;;;;;5013865;28;20041;-59
2021/04/06 11:40:52;;;;;;;5.80;1.30;;;;;;;;;;5029520;28;20053;-60
2021/04/06 11:43:17;;;;;;;3.40;0.80;;;;;;;;;;5014111;28;20477;-60
2021/04/06 11:45:42;;;;;;;3.65;0.90;;;;;;;;;;5013440;28;20039;-60
2021/04/06 11:48:08;;;;;;;4.40;1.05;;;;;;;;;;5013672;28;20123;-59
2021/04/06 11:50:33;;;;;;;3.15;0.70;;;;;;;;;;5013202;28;20454;-59
2021/04/06 11:52:59;;;;;;;2.40;0.65;;;;;;;;;;5014190;28;20025;-59
2021/04/06 11:55:24;;;;;;;4.30;0.90;;;;;;;;;;5013863;28;20029;-60
2021/04/06 11:57:49;;;;;;;4.00;0.80;;;;;;;;;;5014530;28;20061;-59
2021/04/06 12:00:16;;;;;;;0.97;0.50;;;;;;;;;;5013573;28;20485;-59
2021/04/06 12:02:41;;;;;;;;;;;;;;;;;;4996915;28;20034;-59
2021/04/06 12:05:07;;;;;;;5.50;0.70;;;;;;;;;;5013546;28;19913;-56
2021/04/06 12:07:32;;;;;;;4.82;1.05;;;;;;;;;;5012136;28;20353;-59
2021/04/06 12:10:00;;;;;;;2.43;0.80;;;;;;;;;;5012820;28;20030;-59
2021/04/06 12:12:26;;;;;;;3.35;0.93;;;;;;;;;;5011816;28;20038;-59
2021/04/06 12:14:51;;;;;;;1.55;0.75;;;;;;;;;;5013498;28;20512;-59
2021/04/06 12:17:17;;;;;;;4.17;0.97;;;;;;;;;;5011767;28;20124;-59
2021/04/06 12:19:42;;;;;;;3.77;1.23;;;;;;;;;;5012441;28;20029;-60
2021/04/06 12:22:07;;;;;;;2.83;0.90;;;;;;;;;;5013806;28;20088;-59
2021/04/06 12:24:33;;;;;;;3.53;1.07;;;;;;;;;;5028432;28;20026;-60
2021/04/06 12:26:58;;;;;;;1.60;0.63;;;;;;;;;;5012134;28;20247;-59
2021/04/06 12:29:24;;;;;;;1.30;0.50;;;;;;;;;;5028336;28;20080;-59
2021/04/06 12:31:49;;;;;;;3.50;0.80;;;;;;;;;;5012800;28;20029;-60
2021/04/06 12:34:14;;;;;;;3.00;0.80;;;;;;;;;;5011735;28;20030;-59
2021/04/06 12:36:40;;;;;;;2.05;0.80;;;;;;;;;;5012347;28;20025;-59
2021/04/06 12:39:05;;;;;;;2.00;0.70;;;;;;;;;;5013515;28;20030;-60
2021/04/06 12:41:31;;;;;;;4.10;0.90;;;;;;;;;;5012739;28;20417;-61
2021/04/06 12:43:56;;;;;;;4.13;1.23;;;;;;;;;;5013206;28;20429;-60
2021/04/06 12:46:21;;;;;;;3.33;0.98;;;;;;;;;;5012629;28;20041;-60
2021/04/06 12:48:47;;;;;;;4.50;1.10;;;;;;;;;;5011833;28;20065;-60
2021/04/06 12:51:12;;;;;;;4.35;1.00;;;;;;;;;;5011295;28;20049;-58
2021/04/06 12:53:37;;;;;;;6.50;1.20;;;;;;;;;;5013155;28;20060;-58
2021/04/06 12:56:03;;;;;;;6.00;1.53;;;;;;;;;;5012986;28;20105;-59
2021/04/06 12:58:29;;;;;;;7.40;1.50;;;;;;;;;;5010759;28;20042;-60
2021/04/06 13:00:54;;;;;;;6.33;1.80;;;;;;;;;;5012783;28;20157;-60
2021/04/06 13:03:19;;;;;;;4.93;1.40;;;;;;;;;;5012166;28;20584;-58
2021/04/06 13:05:45;;;;;;;7.07;1.20;;;;;;;;;;5028110;28;20045;-60
2021/04/06 13:08:10;;;;;;;8.17;1.63;;;;;;;;;;5011655;28;20041;-58
2021/04/06 13:10:39;;;;;;;6.53;1.40;;;;;;;;;;5012135;28;20095;-58
2021/04/06 13:13:04;;;;;;;8.57;1.83;;;;;;;;;;5011587;28;20096;-60
2021/04/06 13:15:30;;;;;;;7.90;2.03;;;;;;;;;;4994561;28;20378;-60
2021/04/06 13:17:55;;;;;;;17.70;2.77;;;;;;;;;;5011287;28;20096;-60
2021/04/06 13:20:21;;;;;;;10.07;2.37;;;;;;;;;;5011852;28;20091;-58
2021/04/06 13:22:46;;;;;;;11.97;2.27;;;;;;;;;;5011364;28;20105;-59
2021/04/06 13:25:12;;;;;;;9.33;2.37;;;;;;;;;;5011450;28;20159;-59
2021/04/06 13:27:38;;;;;;;10.05;3.03;;;;;;;;;;5011745;28;20442;-59
2021/04/06 13:30:05;;;;;;;7.10;1.90;;;;;;;;;;5012615;28;20025;-59
2021/04/06 13:32:30;;;;;;;;;;;;;;;;;;4978494;28;20405;-58
2021/04/06 13:34:55;;;;;;;10.33;1.10;;;;;;;;;;5012482;28;19906;-58
2021/04/06 13:37:21;;;;;;;6.70;1.77;;;;;;;;;;5011657;28;20052;-60
2021/04/06 13:39:46;;;;;;;13.30;1.40;;;;;;;;;;5011995;28;20153;-60
2021/04/06 13:42:12;;;;;;;7.10;0.83;;;;;;;;;;5012402;28;20030;-60
2021/04/06 13:44:38;;;;;;;9.23;1.67;;;;;;;;;;5011514;28;20057;-60
2021/04/06 13:47:04;;;;;;;4.32;1.05;;;;;;;;;;5010955;28;20025;-59
2021/04/06 13:49:30;;;;;;;5.07;0.77;;;;;;;;;;5011520;28;20115;-58
2021/04/06 13:51:55;;;;;;;10.30;1.70;;;;;;;;;;5012293;28;20084;-59
2021/04/06 13:54:21;;;;;;;3.30;1.33;;;;;;;;;;5011651;28;20080;-59
2021/04/06 13:56:46;;;;;;;5.20;1.37;;;;;;;;;;5010763;28;20038;-57
2021/04/06 13:59:12;;;;;;;6.78;1.30;;;;;;;;;;5012138;28;20429;-59
2021/04/06 14:01:37;;;;;;;8.73;2.20;;;;;;;;;;5011626;28;20232;-60
2021/04/06 14:04:03;;;;;;;8.77;1.53;;;;;;;;;;5012475;28;20040;-60
2021/04/06 14:06:28;;;;;;;6.83;1.57;;;;;;;;;;5012225;28;20316;-59
2021/04/06 14:08:54;;;;;;;3.97;0.80;;;;;;;;;;4994752;28;20303;-60
2021/04/06 14:11:20;;;;;;;7.53;1.03;;;;;;;;;;5010724;28;20100;-59
2021/04/06 14:13:46;;;;;;;;;;;;;;;;;;5010981;28;20018;-59
2021/04/06 14:16:11;;;;;;;6.50;1.37;;;;;;;;;;5010557;28;20314;-59
2021/04/06 14:18:36;;;;;;;5.37;1.33;;;;;;;;;;5009880;28;20034;-59
2021/04/06 14:21:02;;;;;;;7.90;1.63;;;;;;;;;;5010719;28;20045;-61
2021/04/06 14:23:28;;;;;;;8.10;1.50;;;;;;;;;;5009964;28;20026;-59
2021/04/06 14:26:04;;;;;;;9.45;1.35;;;;;;;;;;5027174;28;20037;-60
2021/04/06 14:28:29;;;;;;;10.93;1.88;;;;;;;;;;5011369;28;20026;-60
2021/04/06 14:30:55;;;;;;;9.97;1.50;;;;;;;;;;5012265;28;20029;-60
2021/04/06 14:33:21;;;;;;;14.60;3.15;;;;;;;;;;5014477;28;20026;-60
2021/04/06 14:35:49;;;;;;;9.73;2.70;;;;;;;;;;5014474;28;20041;-60
2021/04/06 14:38:15;;;;;;;12.25;2.28;;;;;;;;;;5014120;28;20094;-59
2021/04/06 14:40:40;;;;;;;12.30;3.65;;;;;;;;;;5013627;28;20374;-59
2021/04/06 14:43:19;;;;;;;6.57;1.47;;;;;;;;;;5030930;28;20030;-59